sensor_id;sensor_type;location;lat;lon;timestamp;temperature;humidity
7077;DHT22;3579;48.956;9.154;2024-02-28T00:00:51;17.90;59.80
7077;DHT22;3579;48.956;9.154;2024-02-28T00:03:18;18.00;59.90
7077;DHT22;3579;48.956;9.154;2024-02-28T00:05:44;18.00;59.80
7077;DHT22;3579;48.956;9.154;2024-02-28T00:10:38;17.90;59.50
7077;DHT22;3579;48.956;9.154;2024-02-28T00:13:04;17.90;60.00
7077;DHT22;3579;48.956;9.154;2024-02-28T00:15:30;17.90;60.00
7077;DHT22;3579;48.956;9.154;2024-02-28T00:17:56;17.90;59.90
7077;DHT22;3579;48.956;9.154;2024-02-28T00:20:23;17.90;59.90
7077;DHT22;3579;48.956;9.154;2024-02-28T00:22:53;17.90;59.90
7077;DHT22;3579;48.956;9.154;2024-02-28T00:25:19;17.90;60.00
7077;DHT22;3579;48.956;9.154;2024-02-28T00:27:45;17.90;59.90
7077;DHT22;3579;48.956;9.154;2024-02-28T00:30:12;17.90;60.00
7077;DHT22;3579;48.956;9.154;2024-02-28T00:32:38;17.90;60.00
7077;DHT22;3579;48.956;9.154;2024-02-28T00:35:04;17.90;60.00
7077;DHT22;3579;48.956;9.154;2024-02-28T00:37:30;17.90;60.00
7077;DHT22;3579;48.956;9.154;2024-02-28T00:39:57;17.90;60.00
7077;DHT22;3579;48.956;9.154;2024-02-28T00:42:23;17.80;60.60
7077;DHT22;3579;48.956;9.154;2024-02-28T00:44:49;17.80;60.00
7077;DHT22;3579;48.956;9.154;2024-02-28T00:47:15;17.90;60.00
7077;DHT22;3579;48.956;9.154;2024-02-28T00:49:41;17.80;60.00
7077;DHT22;3579;48.956;9.154;2024-02-28T00:52:07;17.80;60.00
7077;DHT22;3579;48.956;9.154;2024-02-28T00:54:33;17.80;60.00
7077;DHT22;3579;48.956;9.154;2024-02-28T00:56:59;17.80;60.00
7077;DHT22;3579;48.956;9.154;2024-02-28T00:59:25;17.90;60.00
7077;DHT22;3579;48.956;9.154;2024-02-28T01:01:51;17.90;60.00
7077;DHT22;3579;48.956;9.154;2024-02-28T01:04:17;17.90;60.00
7077;DHT22;3579;48.956;9.154;2024-02-28T01:06:43;17.80;59.90
7077;DHT22;3579;48.956;9.154;2024-02-28T01:09:09;17.90;60.00
7077;DHT22;3579;48.956;9.154;2024-02-28T01:11:35;17.90;60.00
7077;DHT22;3579;48.956;9.154;2024-02-28T01:14:01;17.90;60.00
7077;DHT22;3579;48.956;9.154;2024-02-28T01:16:27;17.90;60.10
7077;DHT22;3579;48.956;9.154;2024-02-28T01:18:53;17.90;60.10
7077;DHT22;3579;48.956;9.154;2024-02-28T01:21:20;17.90;60.00
7077;DHT22;3579;48.956;9.154;2024-02-28T01:23:46;17.90;60.20
7077;DHT22;3579;48.956;9.154;2024-02-28T01:26:12;17.90;60.10
7077;DHT22;3579;48.956;9.154;2024-02-28T01:28:38;17.90;60.10
7077;DHT22;3579;48.956;9.154;2024-02-28T01:31:04;17.90;60.20
7077;DHT22;3579;48.956;9.154;2024-02-28T01:33:31;17.90;60.20
7077;DHT22;3579;48.956;9.154;2024-02-28T01:35:58;17.90;60.90
7077;DHT22;3579;48.956;9.154;2024-02-28T01:38:24;17.90;60.20
7077;DHT22;3579;48.956;9.154;2024-02-28T01:40:52;17.90;60.30
7077;DHT22;3579;48.956;9.154;2024-02-28T01:43:18;17.80;60.20
7077;DHT22;3579;48.956;9.154;2024-02-28T01:45:44;17.80;60.20
7077;DHT22;3579;48.956;9.154;2024-02-28T01:48:11;17.80;60.20
7077;DHT22;3579;48.956;9.154;2024-02-28T01:50:38;17.80;60.20
7077;DHT22;3579;48.956;9.154;2024-02-28T01:53:06;17.80;60.20
7077;DHT22;3579;48.956;9.154;2024-02-28T01:55:35;17.80;60.20
7077;DHT22;3579;48.956;9.154;2024-02-28T01:58:02;17.80;60.30
7077;DHT22;3579;48.956;9.154;2024-02-28T02:00:32;17.70;60.20
7077;DHT22;3579;48.956;9.154;2024-02-28T02:03:00;17.80;60.30
7077;DHT22;3579;48.956;9.154;2024-02-28T02:05:26;17.80;60.30
7077;DHT22;3579;48.956;9.154;2024-02-28T02:07:53;17.80;60.30
7077;DHT22;3579;48.956;9.154;2024-02-28T02:10:21;17.80;60.30
7077;DHT22;3579;48.956;9.154;2024-02-28T02:12:47;17.80;60.10
7077;DHT22;3579;48.956;9.154;2024-02-28T02:15:13;17.80;60.10
7077;DHT22;3579;48.956;9.154;2024-02-28T02:17:39;17.80;60.20
7077;DHT22;3579;48.956;9.154;2024-02-28T02:20:06;17.80;60.10
7077;DHT22;3579;48.956;9.154;2024-02-28T02:22:37;17.80;60.10
7077;DHT22;3579;48.956;9.154;2024-02-28T02:25:04;17.90;60.20
7077;DHT22;3579;48.956;9.154;2024-02-28T02:27:31;17.90;60.20
7077;DHT22;3579;48.956;9.154;2024-02-28T02:29:57;17.90;60.20
7077;DHT22;3579;48.956;9.154;2024-02-28T02:32:23;17.90;60.30
7077;DHT22;3579;48.956;9.154;2024-02-28T02:34:49;17.80;60.20
7077;DHT22;3579;48.956;9.154;2024-02-28T02:37:15;17.80;60.20
7077;DHT22;3579;48.956;9.154;2024-02-28T02:39:41;17.90;60.40
7077;DHT22;3579;48.956;9.154;2024-02-28T02:42:07;17.80;60.30
7077;DHT22;3579;48.956;9.154;2024-02-28T02:44:34;17.80;60.40
7077;DHT22;3579;48.956;9.154;2024-02-28T02:47:00;17.80;60.40
7077;DHT22;3579;48.956;9.154;2024-02-28T02:49:26;17.80;60.40
7077;DHT22;3579;48.956;9.154;2024-02-28T02:51:52;17.80;60.40
7077;DHT22;3579;48.956;9.154;2024-02-28T02:54:19;17.80;60.40
7077;DHT22;3579;48.956;9.154;2024-02-28T02:56:45;17.80;60.40
7077;DHT22;3579;48.956;9.154;2024-02-28T02:59:11;17.80;60.40
7077;DHT22;3579;48.956;9.154;2024-02-28T03:01:37;17.80;60.50
7077;DHT22;3579;48.956;9.154;2024-02-28T03:04:04;17.80;60.50
7077;DHT22;3579;48.956;9.154;2024-02-28T03:06:30;17.70;60.40
7077;DHT22;3579;48.956;9.154;2024-02-28T03:08:58;17.70;60.40
7077;DHT22;3579;48.956;9.154;2024-02-28T03:11:24;17.70;60.40
7077;DHT22;3579;48.956;9.154;2024-02-28T03:13:50;17.70;60.40
7077;DHT22;3579;48.956;9.154;2024-02-28T03:16:16;17.70;60.40
7077;DHT22;3579;48.956;9.154;2024-02-28T03:18:43;17.70;60.40
7077;DHT22;3579;48.956;9.154;2024-02-28T03:21:09;17.70;60.40
7077;DHT22;3579;48.956;9.154;2024-02-28T03:23:35;17.70;60.40
7077;DHT22;3579;48.956;9.154;2024-02-28T03:26:02;17.70;60.40
7077;DHT22;3579;48.956;9.154;2024-02-28T03:28:29;17.60;60.10
7077;DHT22;3579;48.956;9.154;2024-02-28T03:30:55;17.80;60.40
7077;DHT22;3579;48.956;9.154;2024-02-28T03:33:21;17.80;60.40
7077;DHT22;3579;48.956;9.154;2024-02-28T03:35:47;17.80;60.30
7077;DHT22;3579;48.956;9.154;2024-02-28T03:38:13;17.80;60.40
7077;DHT22;3579;48.956;9.154;2024-02-28T03:40:39;17.80;60.40
7077;DHT22;3579;48.956;9.154;2024-02-28T03:43:05;17.80;60.40
7077;DHT22;3579;48.956;9.154;2024-02-28T03:45:37;17.80;60.40
7077;DHT22;3579;48.956;9.154;2024-02-28T03:48:03;17.80;60.40
7077;DHT22;3579;48.956;9.154;2024-02-28T03:50:29;17.80;60.50
7077;DHT22;3579;48.956;9.154;2024-02-28T03:52:55;17.80;60.40
7077;DHT22;3579;48.956;9.154;2024-02-28T03:55:21;17.80;60.50
7077;DHT22;3579;48.956;9.154;2024-02-28T03:57:50;17.80;61.20
7077;DHT22;3579;48.956;9.154;2024-02-28T04:00:18;17.80;60.60
7077;DHT22;3579;48.956;9.154;2024-02-28T04:02:44;17.80;60.60
7077;DHT22;3579;48.956;9.154;2024-02-28T04:05:10;17.80;60.50
7077;DHT22;3579;48.956;9.154;2024-02-28T04:07:36;17.80;60.50
7077;DHT22;3579;48.956;9.154;2024-02-28T04:10:02;17.80;60.60
7077;DHT22;3579;48.956;9.154;2024-02-28T04:12:31;17.70;60.50
7077;DHT22;3579;48.956;9.154;2024-02-28T04:14:57;17.70;60.50
7077;DHT22;3579;48.956;9.154;2024-02-28T04:17:23;17.70;60.50
7077;DHT22;3579;48.956;9.154;2024-02-28T04:19:49;17.70;60.50
7077;DHT22;3579;48.956;9.154;2024-02-28T04:22:15;17.70;60.50
7077;DHT22;3579;48.956;9.154;2024-02-28T04:24:41;17.70;60.50
7077;DHT22;3579;48.956;9.154;2024-02-28T04:27:07;17.70;60.50
7077;DHT22;3579;48.956;9.154;2024-02-28T04:29:35;17.70;60.60
7077;DHT22;3579;48.956;9.154;2024-02-28T04:32:01;17.70;60.60
7077;DHT22;3579;48.956;9.154;2024-02-28T04:34:27;17.70;60.50
7077;DHT22;3579;48.956;9.154;2024-02-28T04:36:53;17.70;60.50
7077;DHT22;3579;48.956;9.154;2024-02-28T04:39:20;17.70;60.40
7077;DHT22;3579;48.956;9.154;2024-02-28T04:41:46;17.70;60.40
7077;DHT22;3579;48.956;9.154;2024-02-28T04:44:12;17.70;60.40
7077;DHT22;3579;48.956;9.154;2024-02-28T04:46:38;17.70;61.00
7077;DHT22;3579;48.956;9.154;2024-02-28T04:49:04;17.70;60.30
7077;DHT22;3579;48.956;9.154;2024-02-28T04:51:30;17.70;60.30
7077;DHT22;3579;48.956;9.154;2024-02-28T04:53:56;17.70;60.30
7077;DHT22;3579;48.956;9.154;2024-02-28T04:56:22;17.70;60.30
7077;DHT22;3579;48.956;9.154;2024-02-28T04:58:49;17.70;60.30
7077;DHT22;3579;48.956;9.154;2024-02-28T05:01:15;17.70;60.30
7077;DHT22;3579;48.956;9.154;2024-02-28T05:03:41;17.70;60.30
7077;DHT22;3579;48.956;9.154;2024-02-28T05:06:07;17.70;61.00
7077;DHT22;3579;48.956;9.154;2024-02-28T05:08:34;17.70;60.30
7077;DHT22;3579;48.956;9.154;2024-02-28T05:11:02;17.80;60.40
7077;DHT22;3579;48.956;9.154;2024-02-28T05:13:28;17.70;60.30
7077;DHT22;3579;48.956;9.154;2024-02-28T05:15:54;17.70;60.30
7077;DHT22;3579;48.956;9.154;2024-02-28T05:18:20;17.90;60.30
7077;DHT22;3579;48.956;9.154;2024-02-28T05:20:46;17.70;60.30
7077;DHT22;3579;48.956;9.154;2024-02-28T05:23:12;17.70;60.30
7077;DHT22;3579;48.956;9.154;2024-02-28T05:25:38;17.60;60.30
7077;DHT22;3579;48.956;9.154;2024-02-28T05:28:05;17.60;60.30
7077;DHT22;3579;48.956;9.154;2024-02-28T05:30:31;17.60;60.30
7077;DHT22;3579;48.956;9.154;2024-02-28T05:32:57;17.60;60.30
7077;DHT22;3579;48.956;9.154;2024-02-28T05:35:23;17.60;61.00
7077;DHT22;3579;48.956;9.154;2024-02-28T05:37:53;17.60;60.30
7077;DHT22;3579;48.956;9.154;2024-02-28T05:40:20;17.60;60.30
7077;DHT22;3579;48.956;9.154;2024-02-28T05:42:46;17.60;60.30
7077;DHT22;3579;48.956;9.154;2024-02-28T05:45:12;17.60;60.40
7077;DHT22;3579;48.956;9.154;2024-02-28T05:47:38;17.60;60.30
7077;DHT22;3579;48.956;9.154;2024-02-28T05:50:05;17.60;60.30
7077;DHT22;3579;48.956;9.154;2024-02-28T05:52:31;17.60;60.20
7077;DHT22;3579;48.956;9.154;2024-02-28T05:54:57;17.60;60.20
7077;DHT22;3579;48.956;9.154;2024-02-28T05:57:23;17.60;60.20
7077;DHT22;3579;48.956;9.154;2024-02-28T05:59:49;17.60;60.20
7077;DHT22;3579;48.956;9.154;2024-02-28T06:02:15;17.60;60.20
7077;DHT22;3579;48.956;9.154;2024-02-28T06:04:41;17.60;60.20
7077;DHT22;3579;48.956;9.154;2024-02-28T06:07:07;17.60;60.20
7077;DHT22;3579;48.956;9.154;2024-02-28T06:09:33;17.60;60.20
7077;DHT22;3579;48.956;9.154;2024-02-28T06:11:59;17.60;60.30
7077;DHT22;3579;48.956;9.154;2024-02-28T06:14:27;17.60;60.20
7077;DHT22;3579;48.956;9.154;2024-02-28T06:16:53;17.60;60.20
7077;DHT22;3579;48.956;9.154;2024-02-28T06:19:19;17.60;60.20
7077;DHT22;3579;48.956;9.154;2024-02-28T06:21:45;17.60;60.20
7077;DHT22;3579;48.956;9.154;2024-02-28T06:24:11;17.60;60.20
7077;DHT22;3579;48.956;9.154;2024-02-28T06:26:37;17.60;60.20
7077;DHT22;3579;48.956;9.154;2024-02-28T06:29:03;17.60;60.30
7077;DHT22;3579;48.956;9.154;2024-02-28T06:31:32;17.60;60.20
7077;DHT22;3579;48.956;9.154;2024-02-28T06:33:58;17.60;60.20
7077;DHT22;3579;48.956;9.154;2024-02-28T06:36:24;17.60;60.20
7077;DHT22;3579;48.956;9.154;2024-02-28T06:38:50;17.50;60.20
7077;DHT22;3579;48.956;9.154;2024-02-28T06:41:16;17.60;60.30
7077;DHT22;3579;48.956;9.154;2024-02-28T06:43:42;17.60;60.30
7077;DHT22;3579;48.956;9.154;2024-02-28T06:46:08;17.50;60.20
7077;DHT22;3579;48.956;9.154;2024-02-28T06:48:35;17.50;60.20
7077;DHT22;3579;48.956;9.154;2024-02-28T06:51:01;17.50;60.20
7077;DHT22;3579;48.956;9.154;2024-02-28T06:53:27;17.50;60.20
7077;DHT22;3579;48.956;9.154;2024-02-28T06:55:53;17.50;60.20
7077;DHT22;3579;48.956;9.154;2024-02-28T06:58:20;19.60;62.10
7077;DHT22;3579;48.956;9.154;2024-02-28T07:00:47;17.50;60.10
7077;DHT22;3579;48.956;9.154;2024-02-28T07:03:13;17.50;60.10
7077;DHT22;3579;48.956;9.154;2024-02-28T07:05:39;17.60;60.20
7077;DHT22;3579;48.956;9.154;2024-02-28T07:08:05;17.60;60.20
7077;DHT22;3579;48.956;9.154;2024-02-28T07:10:32;17.60;60.20
7077;DHT22;3579;48.956;9.154;2024-02-28T07:12:58;17.60;60.20
7077;DHT22;3579;48.956;9.154;2024-02-28T07:15:24;17.60;60.10
7077;DHT22;3579;48.956;9.154;2024-02-28T07:17:50;17.60;60.10
7077;DHT22;3579;48.956;9.154;2024-02-28T07:20:16;17.60;60.10
7077;DHT22;3579;48.956;9.154;2024-02-28T07:22:43;17.60;60.10
7077;DHT22;3579;48.956;9.154;2024-02-28T07:25:09;17.60;60.10
7077;DHT22;3579;48.956;9.154;2024-02-28T07:27:35;17.60;60.10
7077;DHT22;3579;48.956;9.154;2024-02-28T07:30:02;17.60;60.10
7077;DHT22;3579;48.956;9.154;2024-02-28T07:32:29;17.60;60.20
7077;DHT22;3579;48.956;9.154;2024-02-28T07:35:01;17.60;60.20
7077;DHT22;3579;48.956;9.154;2024-02-28T07:37:27;17.60;60.20
7077;DHT22;3579;48.956;9.154;2024-02-28T07:39:53;17.60;60.20
7077;DHT22;3579;48.956;9.154;2024-02-28T07:42:19;17.60;60.20
7077;DHT22;3579;48.956;9.154;2024-02-28T07:44:45;17.60;60.20
7077;DHT22;3579;48.956;9.154;2024-02-28T07:47:11;17.60;60.20
7077;DHT22;3579;48.956;9.154;2024-02-28T07:49:37;17.60;60.30
7077;DHT22;3579;48.956;9.154;2024-02-28T07:52:04;17.60;60.30
7077;DHT22;3579;48.956;9.154;2024-02-28T07:54:30;17.50;60.20
7077;DHT22;3579;48.956;9.154;2024-02-28T07:56:56;17.60;60.30
7077;DHT22;3579;48.956;9.154;2024-02-28T07:59:22;17.50;60.20
7077;DHT22;3579;48.956;9.154;2024-02-28T08:01:49;17.50;60.20
7077;DHT22;3579;48.956;9.154;2024-02-28T08:04:15;17.50;60.30
7077;DHT22;3579;48.956;9.154;2024-02-28T08:06:41;17.50;60.20
7077;DHT22;3579;48.956;9.154;2024-02-28T08:09:07;17.50;60.20
7077;DHT22;3579;48.956;9.154;2024-02-28T08:11:33;17.50;60.20
7077;DHT22;3579;48.956;9.154;2024-02-28T08:13:59;17.50;60.30
7077;DHT22;3579;48.956;9.154;2024-02-28T08:16:25;17.50;60.20
7077;DHT22;3579;48.956;9.154;2024-02-28T08:18:51;17.60;60.30
7077;DHT22;3579;48.956;9.154;2024-02-28T08:21:17;17.60;60.20
7077;DHT22;3579;48.956;9.154;2024-02-28T08:23:44;17.60;60.20
7077;DHT22;3579;48.956;9.154;2024-02-28T08:26:10;17.60;60.20
7077;DHT22;3579;48.956;9.154;2024-02-28T08:28:36;17.60;60.10
7077;DHT22;3579;48.956;9.154;2024-02-28T08:31:03;17.60;60.10
7077;DHT22;3579;48.956;9.154;2024-02-28T08:33:29;17.60;60.10
7077;DHT22;3579;48.956;9.154;2024-02-28T08:35:55;17.60;60.10
7077;DHT22;3579;48.956;9.154;2024-02-28T08:38:21;17.60;60.00
7077;DHT22;3579;48.956;9.154;2024-02-28T08:40:47;17.60;60.10
7077;DHT22;3579;48.956;9.154;2024-02-28T08:43:14;17.60;60.10
7077;DHT22;3579;48.956;9.154;2024-02-28T08:45:40;17.60;60.10
7077;DHT22;3579;48.956;9.154;2024-02-28T08:48:07;17.60;60.10
7077;DHT22;3579;48.956;9.154;2024-02-28T08:50:33;17.60;60.20
7077;DHT22;3579;48.956;9.154;2024-02-28T08:53:00;17.60;60.20
7077;DHT22;3579;48.956;9.154;2024-02-28T08:55:26;17.60;60.20
7077;DHT22;3579;48.956;9.154;2024-02-28T08:57:52;17.60;60.10
7077;DHT22;3579;48.956;9.154;2024-02-28T09:00:18;17.70;60.30
7077;DHT22;3579;48.956;9.154;2024-02-28T09:02:44;17.70;60.20
7077;DHT22;3579;48.956;9.154;2024-02-28T09:05:10;17.60;60.10
7077;DHT22;3579;48.956;9.154;2024-02-28T09:07:36;17.60;60.10
7077;DHT22;3579;48.956;9.154;2024-02-28T09:10:06;17.60;60.10
7077;DHT22;3579;48.956;9.154;2024-02-28T09:12:32;17.60;60.10
7077;DHT22;3579;48.956;9.154;2024-02-28T09:14:59;17.60;60.10
7077;DHT22;3579;48.956;9.154;2024-02-28T09:17:26;17.60;60.00
7077;DHT22;3579;48.956;9.154;2024-02-28T09:19:52;17.60;60.10
7077;DHT22;3579;48.956;9.154;2024-02-28T09:22:19;17.60;60.10
7077;DHT22;3579;48.956;9.154;2024-02-28T09:24:47;17.60;60.10
7077;DHT22;3579;48.956;9.154;2024-02-28T09:27:14;17.60;60.10
7077;DHT22;3579;48.956;9.154;2024-02-28T09:29:40;17.60;60.10
7077;DHT22;3579;48.956;9.154;2024-02-28T09:32:06;17.60;60.10
7077;DHT22;3579;48.956;9.154;2024-02-28T09:34:32;17.60;60.10
7077;DHT22;3579;48.956;9.154;2024-02-28T09:36:58;17.70;60.10
7077;DHT22;3579;48.956;9.154;2024-02-28T09:39:24;17.70;60.10
7077;DHT22;3579;48.956;9.154;2024-02-28T09:41:51;17.70;60.10
7077;DHT22;3579;48.956;9.154;2024-02-28T09:44:19;17.70;60.10
7077;DHT22;3579;48.956;9.154;2024-02-28T09:46:46;17.70;60.10
7077;DHT22;3579;48.956;9.154;2024-02-28T09:49:15;17.70;60.00
7077;DHT22;3579;48.956;9.154;2024-02-28T09:51:42;17.80;60.10
7077;DHT22;3579;48.956;9.154;2024-02-28T09:54:09;17.80;60.00
7077;DHT22;3579;48.956;9.154;2024-02-28T09:56:35;17.80;60.00
7077;DHT22;3579;48.956;9.154;2024-02-28T09:59:01;17.80;60.00
7077;DHT22;3579;48.956;9.154;2024-02-28T10:01:29;17.80;60.00
7077;DHT22;3579;48.956;9.154;2024-02-28T10:03:55;17.80;60.00
7077;DHT22;3579;48.956;9.154;2024-02-28T10:06:22;17.90;60.10
7077;DHT22;3579;48.956;9.154;2024-02-28T10:08:48;17.90;60.00
7077;DHT22;3579;48.956;9.154;2024-02-28T10:11:19;17.90;59.80
7077;DHT22;3579;48.956;9.154;2024-02-28T10:13:47;18.00;59.90
7077;DHT22;3579;48.956;9.154;2024-02-28T10:16:13;18.00;59.80
7077;DHT22;3579;48.956;9.154;2024-02-28T10:18:43;18.10;59.80
7077;DHT22;3579;48.956;9.154;2024-02-28T10:21:10;18.10;59.70
7077;DHT22;3579;48.956;9.154;2024-02-28T10:23:38;18.10;59.70
7077;DHT22;3579;48.956;9.154;2024-02-28T10:26:05;18.10;59.60
7077;DHT22;3579;48.956;9.154;2024-02-28T10:28:31;18.10;59.60
7077;DHT22;3579;48.956;9.154;2024-02-28T10:30:58;18.20;59.60
7077;DHT22;3579;48.956;9.154;2024-02-28T10:33:27;18.10;59.60
7077;DHT22;3579;48.956;9.154;2024-02-28T10:35:56;18.10;59.60
7077;DHT22;3579;48.956;9.154;2024-02-28T10:38:26;18.10;59.70
7077;DHT22;3579;48.956;9.154;2024-02-28T10:40:53;18.10;59.80
7077;DHT22;3579;48.956;9.154;2024-02-28T10:43:20;18.10;59.70
7077;DHT22;3579;48.956;9.154;2024-02-28T10:45:46;18.10;59.70
7077;DHT22;3579;48.956;9.154;2024-02-28T10:48:18;18.30;59.80
7077;DHT22;3579;48.956;9.154;2024-02-28T10:50:47;18.10;59.80
7077;DHT22;3579;48.956;9.154;2024-02-28T10:53:18;18.10;59.90
7077;DHT22;3579;48.956;9.154;2024-02-28T10:55:48;18.10;59.90
7077;DHT22;3579;48.956;9.154;2024-02-28T10:58:15;18.00;59.70
7077;DHT22;3579;48.956;9.154;2024-02-28T11:00:43;18.10;59.90
7077;DHT22;3579;48.956;9.154;2024-02-28T11:03:16;18.00;59.80
7077;DHT22;3579;48.956;9.154;2024-02-28T11:05:44;18.00;59.80
7077;DHT22;3579;48.956;9.154;2024-02-28T11:08:24;18.10;59.80
7077;DHT22;3579;48.956;9.154;2024-02-28T11:11:03;18.00;59.80
7077;DHT22;3579;48.956;9.154;2024-02-28T11:13:30;18.00;59.80
7077;DHT22;3579;48.956;9.154;2024-02-28T11:16:25;18.00;59.90
7077;DHT22;3579;48.956;9.154;2024-02-28T11:18:51;18.00;59.80
7077;DHT22;3579;48.956;9.154;2024-02-28T11:21:17;18.00;59.80
7077;DHT22;3579;48.956;9.154;2024-02-28T11:23:47;18.00;59.80
7077;DHT22;3579;48.956;9.154;2024-02-28T11:26:14;18.00;59.80
7077;DHT22;3579;48.956;9.154;2024-02-28T11:28:41;18.00;59.80
7077;DHT22;3579;48.956;9.154;2024-02-28T11:31:10;18.10;60.30
7077;DHT22;3579;48.956;9.154;2024-02-28T11:33:36;18.10;60.20
7077;DHT22;3579;48.956;9.154;2024-02-28T11:36:04;18.10;60.10
7077;DHT22;3579;48.956;9.154;2024-02-28T11:38:30;18.30;60.20
7077;DHT22;3579;48.956;9.154;2024-02-28T11:40:57;18.20;60.20
7077;DHT22;3579;48.956;9.154;2024-02-28T11:43:23;18.20;60.10
7077;DHT22;3579;48.956;9.154;2024-02-28T11:45:50;18.30;60.10
7077;DHT22;3579;48.956;9.154;2024-02-28T11:48:16;18.20;59.70
7077;DHT22;3579;48.956;9.154;2024-02-28T11:50:43;18.30;60.10
7077;DHT22;3579;48.956;9.154;2024-02-28T11:53:09;18.30;60.00
7077;DHT22;3579;48.956;9.154;2024-02-28T11:55:35;18.30;60.00
7077;DHT22;3579;48.956;9.154;2024-02-28T11:58:08;18.30;60.00
7077;DHT22;3579;48.956;9.154;2024-02-28T12:00:34;18.40;60.00
7077;DHT22;3579;48.956;9.154;2024-02-28T12:03:05;18.40;59.90
7077;DHT22;3579;48.956;9.154;2024-02-28T12:05:38;18.40;59.80
7077;DHT22;3579;48.956;9.154;2024-02-28T12:08:05;18.40;60.00
7077;DHT22;3579;48.956;9.154;2024-02-28T12:10:31;18.40;60.00
7077;DHT22;3579;48.956;9.154;2024-02-28T12:13:00;18.40;60.00
7077;DHT22;3579;48.956;9.154;2024-02-28T12:15:30;18.30;60.00
7077;DHT22;3579;48.956;9.154;2024-02-28T12:17:56;18.30;60.00
7077;DHT22;3579;48.956;9.154;2024-02-28T12:20:24;18.30;60.00
7077;DHT22;3579;48.956;9.154;2024-02-28T12:22:50;18.30;60.00
7077;DHT22;3579;48.956;9.154;2024-02-28T12:25:16;18.30;60.00
7077;DHT22;3579;48.956;9.154;2024-02-28T12:27:42;18.30;60.00
7077;DHT22;3579;48.956;9.154;2024-02-28T12:30:08;18.30;60.00
7077;DHT22;3579;48.956;9.154;2024-02-28T12:32:35;18.30;60.00
7077;DHT22;3579;48.956;9.154;2024-02-28T12:35:01;18.30;60.00
7077;DHT22;3579;48.956;9.154;2024-02-28T12:37:27;18.30;60.00
7077;DHT22;3579;48.956;9.154;2024-02-28T12:39:54;18.30;59.90
7077;DHT22;3579;48.956;9.154;2024-02-28T12:42:20;18.30;59.90
7077;DHT22;3579;48.956;9.154;2024-02-28T12:44:46;18.30;59.90
7077;DHT22;3579;48.956;9.154;2024-02-28T12:47:12;18.30;59.90
7077;DHT22;3579;48.956;9.154;2024-02-28T12:49:38;18.40;59.90
7077;DHT22;3579;48.956;9.154;2024-02-28T12:52:04;18.40;59.90
7077;DHT22;3579;48.956;9.154;2024-02-28T12:54:31;18.40;59.90
7077;DHT22;3579;48.956;9.154;2024-02-28T12:56:57;18.40;59.90
7077;DHT22;3579;48.956;9.154;2024-02-28T12:59:23;18.40;60.40
7077;DHT22;3579;48.956;9.154;2024-02-28T13:01:49;18.50;59.90
7077;DHT22;3579;48.956;9.154;2024-02-28T13:04:15;18.50;59.90
7077;DHT22;3579;48.956;9.154;2024-02-28T13:06:41;18.50;59.90
7077;DHT22;3579;48.956;9.154;2024-02-28T13:09:08;18.50;59.80
7077;DHT22;3579;48.956;9.154;2024-02-28T13:11:38;18.60;59.90
7077;DHT22;3579;48.956;9.154;2024-02-28T13:14:05;18.60;59.70
7077;DHT22;3579;48.956;9.154;2024-02-28T13:16:33;18.60;59.70
7077;DHT22;3579;48.956;9.154;2024-02-28T13:19:00;18.00;59.20
7077;DHT22;3579;48.956;9.154;2024-02-28T13:21:26;18.70;59.70
7077;DHT22;3579;48.956;9.154;2024-02-28T13:23:52;18.70;59.70
7077;DHT22;3579;48.956;9.154;2024-02-28T13:26:18;18.70;59.70
7077;DHT22;3579;48.956;9.154;2024-02-28T13:28:44;18.70;59.70
7077;DHT22;3579;48.956;9.154;2024-02-28T13:31:10;18.70;59.70
7077;DHT22;3579;48.956;9.154;2024-02-28T13:33:37;18.70;59.60
7077;DHT22;3579;48.956;9.154;2024-02-28T13:36:04;18.70;59.60
7077;DHT22;3579;48.956;9.154;2024-02-28T13:38:30;18.60;59.30
7077;DHT22;3579;48.956;9.154;2024-02-28T13:40:56;18.70;59.60
7077;DHT22;3579;48.956;9.154;2024-02-28T13:43:22;18.70;59.60
7077;DHT22;3579;48.956;9.154;2024-02-28T13:45:49;18.70;59.60
7077;DHT22;3579;48.956;9.154;2024-02-28T13:48:18;18.70;59.60
7077;DHT22;3579;48.956;9.154;2024-02-28T13:50:47;18.70;60.20
7077;DHT22;3579;48.956;9.154;2024-02-28T13:53:14;18.70;59.60
7077;DHT22;3579;48.956;9.154;2024-02-28T13:55:44;18.70;59.70
7077;DHT22;3579;48.956;9.154;2024-02-28T13:58:14;18.70;59.50
7077;DHT22;3579;48.956;9.154;2024-02-28T14:00:50;17.70;58.80
7077;DHT22;3579;48.956;9.154;2024-02-28T14:03:16;18.70;59.70
7077;DHT22;3579;48.956;9.154;2024-02-28T14:05:42;18.70;59.60
7077;DHT22;3579;48.956;9.154;2024-02-28T14:08:10;18.70;59.60
7077;DHT22;3579;48.956;9.154;2024-02-28T14:10:38;18.80;59.60
7077;DHT22;3579;48.956;9.154;2024-02-28T14:13:05;18.80;59.60
7077;DHT22;3579;48.956;9.154;2024-02-28T14:15:31;18.80;59.60
7077;DHT22;3579;48.956;9.154;2024-02-28T14:17:58;18.80;59.60
7077;DHT22;3579;48.956;9.154;2024-02-28T14:20:24;18.80;59.60
7077;DHT22;3579;48.956;9.154;2024-02-28T14:22:50;18.80;59.50
7077;DHT22;3579;48.956;9.154;2024-02-28T14:25:17;18.90;59.60
7077;DHT22;3579;48.956;9.154;2024-02-28T14:27:45;18.80;59.50
7077;DHT22;3579;48.956;9.154;2024-02-28T14:30:13;18.80;59.50
7077;DHT22;3579;48.956;9.154;2024-02-28T14:32:41;18.90;59.60
7077;DHT22;3579;48.956;9.154;2024-02-28T14:35:08;18.90;59.60
7077;DHT22;3579;48.956;9.154;2024-02-28T14:37:36;18.90;59.60
7077;DHT22;3579;48.956;9.154;2024-02-28T14:40:04;18.90;59.60
7077;DHT22;3579;48.956;9.154;2024-02-28T14:42:40;18.90;59.60
7077;DHT22;3579;48.956;9.154;2024-02-28T14:45:10;18.90;59.60
7077;DHT22;3579;48.956;9.154;2024-02-28T14:47:37;18.90;59.60
7077;DHT22;3579;48.956;9.154;2024-02-28T14:50:04;18.80;59.50
7077;DHT22;3579;48.956;9.154;2024-02-28T14:52:31;18.80;59.50
7077;DHT22;3579;48.956;9.154;2024-02-28T14:54:58;18.80;59.50
7077;DHT22;3579;48.956;9.154;2024-02-28T14:57:24;18.90;59.60
7077;DHT22;3579;48.956;9.154;2024-02-28T14:59:50;18.80;59.60
7077;DHT22;3579;48.956;9.154;2024-02-28T15:02:17;18.80;59.60
7077;DHT22;3579;48.956;9.154;2024-02-28T15:04:44;18.80;59.60
7077;DHT22;3579;48.956;9.154;2024-02-28T15:07:11;18.80;59.70
7077;DHT22;3579;48.956;9.154;2024-02-28T15:09:37;18.80;59.70
7077;DHT22;3579;48.956;9.154;2024-02-28T15:12:03;18.80;59.70
7077;DHT22;3579;48.956;9.154;2024-02-28T15:14:30;18.80;59.80
7077;DHT22;3579;48.956;9.154;2024-02-28T15:16:56;19.40;60.30
7077;DHT22;3579;48.956;9.154;2024-02-28T15:19:22;18.80;59.80
7077;DHT22;3579;48.956;9.154;2024-02-28T15:21:48;18.80;59.70
7077;DHT22;3579;48.956;9.154;2024-02-28T15:24:15;18.80;59.70
7077;DHT22;3579;48.956;9.154;2024-02-28T15:26:42;18.80;59.70
7077;DHT22;3579;48.956;9.154;2024-02-28T15:29:10;18.80;59.70
7077;DHT22;3579;48.956;9.154;2024-02-28T15:31:38;18.80;59.70
7077;DHT22;3579;48.956;9.154;2024-02-28T15:34:04;18.80;59.80
7077;DHT22;3579;48.956;9.154;2024-02-28T15:36:31;18.90;59.80
7077;DHT22;3579;48.956;9.154;2024-02-28T15:38:57;18.80;59.70
7077;DHT22;3579;48.956;9.154;2024-02-28T15:41:23;18.90;59.80
7077;DHT22;3579;48.956;9.154;2024-02-28T15:43:50;18.90;59.80
7077;DHT22;3579;48.956;9.154;2024-02-28T15:46:16;18.80;59.80
7077;DHT22;3579;48.956;9.154;2024-02-28T15:48:45;18.80;59.80
7077;DHT22;3579;48.956;9.154;2024-02-28T15:51:11;18.90;59.80
7077;DHT22;3579;48.956;9.154;2024-02-28T15:53:38;18.80;59.80
7077;DHT22;3579;48.956;9.154;2024-02-28T15:56:05;18.80;59.80
7077;DHT22;3579;48.956;9.154;2024-02-28T15:58:31;18.80;59.90
7077;DHT22;3579;48.956;9.154;2024-02-28T16:00:58;18.80;59.80